Time;durP1;ratioP1;P1;durP2;ratioP2;P2;SDS_P1;SDS_P2;PMS_P1;PMS_P2;Temp;Humidity;BMP_temperature;BMP_pressure;BME280_temperature;BME280_humidity;BME280_pressure;Samples;Min_cycle;Max_cycle;Signal;HPM_P1;HPM_P2
2022/05/02 05:32:50;;;;;;;7.63;4.68;;;;;;;10.65;98.95;98303.50;5046342;28;20389;-58
2022/05/02 05:35:23;;;;;;;7.45;4.75;;;;;;;10.32;98.76;98238.28;5033718;28;20041;-58
2022/05/02 05:38:02;;;;;;;7.75;4.90;;;;;;;10.77;98.21;98297.88;5046305;28;20021;-58
2022/05/02 05:40:38;;;;;;;8.45;5.00;;;;;;;10.84;97.55;98302.47;5037001;28;20517;-60
2022/05/02 05:43:09;;;;;;;8.25;5.00;;;;;;;10.91;96.88;98304.28;5027923;28;20071;-59
2022/05/02 05:45:59;;;;;;;7.88;5.15;;;;;;;10.96;97.43;98304.63;5029817;28;20087;-59
2022/05/02 05:48:30;;;;;;;7.47;4.70;;;;;;;10.98;97.47;98307.09;5035875;28;20102;-60
2022/05/02 05:51:19;;;;;;;7.53;5.00;;;;;;;11.03;96.69;98299.66;5050253;28;20030;-60
2022/05/02 05:53:48;;;;;;;;;;;;;;;11.08;95.79;98294.78;5034627;28;20021;-59
2022/05/02 05:56:16;;;;;;;9.23;5.45;;;;;;;11.10;96.33;98297.25;5041577;28;19923;-58
2022/05/02 05:58:48;;;;;;;9.80;5.07;;;;;;;11.20;96.61;98297.94;5032449;28;20082;-60
2022/05/02 06:01:40;;;;;;;7.63;4.85;;;;;;;11.21;95.36;98299.56;5038315;28;20112;-60
2022/05/02 06:04:07;;;;;;;7.85;4.85;;;;;;;11.17;94.90;98295.66;5039853;28;20177;-60
2022/05/02 06:06:34;;;;;;;9.32;5.38;;;;;;;11.05;94.76;98266.47;5038532;28;20448;-59
2022/05/02 06:09:00;;;;;;;9.38;5.30;;;;;;;11.04;93.89;98259.63;5056729;28;20033;-60
2022/05/02 06:11:27;;;;;;;6.88;4.90;;;;;;;11.35;93.84;98295.53;5039135;28;20456;-59
2022/05/02 06:13:54;;;;;;;9.10;4.80;;;;;;;11.38;93.61;98299.63;5038468;28;20121;-60
2022/05/02 06:19:28;;;;;;;7.57;4.88;;;;;;;11.43;93.18;98292.97;5034154;28;20094;-58
2022/05/02 06:21:54;;;;;;;7.55;5.35;;;;;;;11.34;94.17;98294.72;5037260;28;20029;-59
2022/05/02 06:24:24;;;;;;;7.82;5.38;;;;;;;11.40;93.66;98295.88;5033926;28;20515;-62
2022/05/02 06:26:51;;;;;;;8.00;5.00;;;;;;;11.40;92.85;98295.09;5036651;28;20029;-58
2022/05/02 06:29:18;;;;;;;6.97;4.65;;;;;;;11.42;93.78;98290.53;5024198;28;20065;-60
2022/05/02 06:31:44;;;;;;;9.75;5.15;;;;;;;11.51;93.79;98292.19;5035378;28;20029;-57
2022/05/02 06:34:11;;;;;;;8.32;5.38;;;;;;;11.52;93.67;98291.22;5072836;28;20039;-57
2022/05/02 06:36:54;;;;;;;9.35;5.55;;;;;;;11.57;93.35;98296.75;5021481;28;20079;-59
2022/05/02 06:39:36;;;;;;;10.40;5.78;;;;;;;11.61;93.72;98292.03;5039721;28;20124;-59
2022/05/02 06:42:01;;;;;;;7.65;5.28;;;;;;;11.58;93.14;98295.78;5037225;28;20389;-60
2022/05/02 06:44:32;;;;;;;9.10;5.57;;;;;;;11.33;92.42;98261.88;5019747;28;20462;-61
2022/05/02 06:47:18;;;;;;;7.95;5.60;;;;;;;11.62;92.34;98289.28;5027375;28;20025;-61
2022/05/02 06:49:49;;;;;;;7.85;5.85;;;;;;;11.40;92.29;98251.63;5014832;28;20392;-57
2022/05/02 06:52:19;;;;;;;8.10;5.68;;;;;;;11.57;92.75;98277.72;5017961;28;20840;-59
2022/05/02 06:55:06;;;;;;;8.98;5.82;;;;;;;11.64;92.82;98289.13;5053417;28;20498;-58
2022/05/02 06:57:35;;;;;;;9.18;5.88;;;;;;;11.58;92.79;98297.59;5017900;28;20032;-58
2022/05/02 07:00:00;;;;;;;8.20;5.38;;;;;;;11.57;92.93;98283.72;5026544;28;20674;-58
2022/05/02 07:02:47;;;;;;;9.75;5.82;;;;;;;11.57;92.84;98293.34;5024503;28;20032;-59
2022/05/02 07:05:42;;;;;;;9.40;5.60;;;;;;;11.61;93.45;98290.28;5026524;28;20048;-61
2022/05/02 07:08:07;;;;;;;8.95;5.55;;;;;;;11.62;93.44;98291.06;5022643;28;20072;-59
2022/05/02 07:10:33;;;;;;;8.35;5.70;;;;;;;11.53;93.24;98283.22;5021442;28;20120;-57
2022/05/02 07:12:59;;;;;;;8.85;5.75;;;;;;;11.63;93.82;98277.91;5026616;28;20025;-61
2022/05/02 07:15:40;;;;;;;9.55;5.93;;;;;;;11.52;92.72;98258.19;5024842;28;20658;-60
2022/05/02 07:18:07;;;;;;;7.75;5.40;;;;;;;11.74;92.43;98293.22;5023157;28;20030;-60
2022/05/02 07:21:07;;;;;;;9.30;5.00;;;;;;;11.76;91.66;98293.06;5016481;28;20042;-59
2022/05/02 07:23:50;;;;;;;7.03;4.35;;;;;;;11.51;90.68;98273.97;5036563;28;20038;-62
2022/05/02 07:26:18;;;;;;;6.70;4.53;;;;;;;11.46;92.24;98282.25;5039675;28;20399;-59
2022/05/02 07:28:48;;;;;;;7.10;4.15;;;;;;;11.60;92.57;98282.59;5020819;28;20040;-59
2022/05/02 07:31:19;;;;;;;6.70;4.22;;;;;;;11.39;89.83;98246.59;4987995;28;20305;-60
2022/05/02 07:33:46;;;;;;;7.15;4.28;;;;;;;11.68;90.48;98291.25;5024538;28;20220;-59
2022/05/02 07:36:17;;;;;;;7.32;4.20;;;;;;;11.49;90.31;98242.88;5022612;28;20475;-59
2022/05/02 07:38:46;;;;;;;7.60;4.53;;;;;;;11.76;91.22;98272.22;5021905;28;20026;-60
2022/05/02 07:41:22;;;;;;;7.73;4.57;;;;;;;11.74;89.98;98276.78;5013681;28;20065;-60
2022/05/02 07:43:50;;;;;;;6.32;4.13;;;;;;;11.73;88.62;98251.69;5011821;28;20061;-61
2022/05/02 07:46:36;;;;;;;7.30;4.43;;;;;;;11.93;90.72;98283.50;5017136;28;20029;-59
2022/05/02 07:49:03;;;;;;;7.10;4.80;;;;;;;11.66;89.86;98240.28;5015567;28;20018;-62
2022/05/02 07:51:29;;;;;;;7.53;4.20;;;;;;;11.87;90.54;98277.13;5020674;28;20029;-59
2022/05/02 07:53:57;;;;;;;7.05;4.55;;;;;;;11.67;90.31;98239.34;5049857;28;20036;-60
2022/05/02 07:56:24;;;;;;;7.60;4.55;;;;;;;11.91;90.51;98280.25;4998855;28;20041;-62
2022/05/02 07:58:52;;;;;;;7.63;4.30;;;;;;;11.71;89.61;98232.81;5021283;28;20033;-59
2022/05/02 08:01:18;;;;;;;9.32;4.38;;;;;;;11.99;92.17;98272.47;5001951;28;20040;-62
2022/05/02 08:03:44;;;;;;;8.40;4.40;;;;;;;11.75;91.07;98247.13;5009848;28;20033;-59
2022/05/02 08:06:35;;;;;;;7.20;5.15;;;;;;;11.93;92.52;98276.50;5017773;28;20029;-59
2022/05/02 08:09:10;;;;;;;7.25;4.68;;;;;;;12.27;91.00;98277.34;5004583;28;20212;-58
2022/05/02 08:11:59;;;;;;;7.45;4.18;;;;;;;13.12;85.24;98269.00;5017677;28;20018;-59
2022/05/02 08:14:38;;;;;;;6.32;3.75;;;;;;;13.91;81.05;98273.34;5044370;28;20036;-61
2022/05/02 08:17:27;;;;;;;7.57;3.15;;;;;;;14.31;72.24;98232.16;5019778;28;20652;-59
2022/05/02 08:20:30;;;;;;;5.47;3.45;;;;;;;15.55;70.65;98271.69;5014748;28;20035;-61
2022/05/02 08:29:06;;;;;;;6.57;3.15;;;;;;;18.20;56.29;98249.81;5016919;28;20498;-60
2022/05/02 08:31:53;;;;;;;6.75;3.58;;;;;;;18.80;52.94;98268.19;5018404;28;20018;-61
2022/05/02 08:34:33;;;;;;;7.82;3.22;;;;;;;19.05;51.92;98267.53;5023052;28;20218;-59
2022/05/02 08:37:07;;;;;;;6.78;3.58;;;;;;;19.25;49.31;98269.28;5003344;28;20116;-62
2022/05/02 08:39:59;;;;;;;6.07;3.35;;;;;;;20.02;47.35;98267.47;5022760;28;20033;-61
2022/05/02 08:42:58;;;;;;;5.97;3.33;;;;;;;19.66;46.75;98268.06;5020620;28;20637;-62
2022/05/02 08:45:48;;;;;;;6.55;3.33;;;;;;;20.23;46.60;98266.31;4943007;28;20057;-61
2022/05/02 08:48:35;;;;;;;6.32;3.10;;;;;;;20.49;43.70;98251.25;5011296;28;20112;-59
2022/05/02 08:51:00;;;;;;;6.25;3.13;;;;;;;20.62;43.07;98259.09;5035686;28;20037;-60
2022/05/02 08:53:43;;;;;;;6.28;3.42;;;;;;;20.38;43.65;98265.97;5020099;28;20090;-58
2022/05/02 08:56:15;;;;;;;5.82;2.90;;;;;;;21.01;44.65;98258.88;5018035;28;20017;-59
2022/05/02 08:59:22;;;;;;;5.47;2.97;;;;;;;21.73;42.73;98250.28;5013595;28;20033;-60
2022/05/02 09:02:16;;;;;;;5.78;2.83;;;;;;;21.71;42.63;98258.44;5017051;28;20041;-59
2022/05/02 09:05:24;;;;;;;5.63;3.10;;;;;;;21.84;43.36;98260.09;5052569;28;20029;-61
2022/05/02 09:07:52;;;;;;;4.97;2.88;;;;;;;21.81;43.59;98257.88;5012125;28;20046;-58
2022/05/02 09:10:20;;;;;;;5.00;2.90;;;;;;;21.46;43.13;98256.72;5015899;28;20527;-63
2022/05/02 09:13:10;;;;;;;4.80;2.70;;;;;;;21.06;43.23;98253.75;5018291;28;20091;-59
2022/05/02 09:16:06;;;;;;;5.38;2.85;;;;;;;20.29;43.43;98257.53;5020166;28;20035;-60
2022/05/02 09:19:06;;;;;;;4.78;2.50;;;;;;;19.90;44.14;98258.66;5013586;28;20072;-59
2022/05/02 09:21:47;;;;;;;5.00;2.70;;;;;;;19.31;45.96;98257.91;5014090;28;20097;-59
2022/05/02 09:24:39;;;;;;;4.95;2.60;;;;;;;18.54;46.93;98262.94;5017052;28;20037;-60
2022/05/02 09:27:14;;;;;;;4.65;2.60;;;;;;;18.26;47.04;98258.72;5020369;28;20112;-59
2022/05/02 09:29:58;;;;;;;4.88;2.58;;;;;;;18.04;48.03;98261.53;5017073;28;20033;-59
2022/05/02 09:32:46;;;;;;;4.90;2.47;;;;;;;17.82;48.54;98252.19;5020023;28;20042;-58
2022/05/02 09:35:17;;;;;;;5.25;2.38;;;;;;;17.68;49.33;98248.72;5017748;28;20409;-59
2022/05/02 09:38:05;;;;;;;4.47;2.47;;;;;;;17.47;48.94;98247.88;5007623;28;20025;-59
2022/05/02 09:40:35;;;;;;;5.65;2.47;;;;;;;17.43;48.93;98209.03;5032633;28;20033;-59
2022/05/02 09:49:34;;;;;;;6.50;3.03;;;;;;;17.74;50.61;98240.06;5013702;28;20041;-59
2022/05/02 09:52:03;;;;;;;5.47;3.38;;;;;;;17.68;50.43;98244.25;5017027;28;20075;-60
2022/05/02 09:57:36;;;;;;;5.50;3.17;;;;;;;17.76;50.47;98231.94;5013454;28;20041;-60
2022/05/02 10:02:49;;;;;;;5.65;3.00;;;;;;;17.94;49.84;98231.38;5010679;28;20036;-60
2022/05/02 10:05:21;;;;;;;5.68;3.47;;;;;;;17.76;48.21;98195.13;5018042;28;20113;-59
2022/05/02 10:07:56;;;;;;;5.82;3.40;;;;;;;18.23;48.51;98230.19;5016492;28;20581;-60
2022/05/02 10:10:50;;;;;;;5.88;3.30;;;;;;;18.09;49.40;98229.38;5046364;28;20045;-59
2022/05/02 10:13:33;;;;;;;6.63;3.35;;;;;;;17.98;49.10;98225.53;5022312;28;20088;-59
2022/05/02 10:16:15;;;;;;;5.30;3.13;;;;;;;18.09;51.11;98223.28;5013147;28;20025;-60
2022/05/02 10:18:50;;;;;;;6.03;3.75;;;;;;;17.93;50.01;98190.34;5045729;28;20120;-60
2022/05/02 10:21:22;;;;;;;6.20;3.55;;;;;;;17.92;50.80;98204.47;5053236;28;20136;-60
2022/05/02 10:24:03;;;;;;;6.18;3.97;;;;;;;18.03;50.66;98217.03;5017271;28;20028;-60
2022/05/02 10:26:44;;;;;;;6.18;3.90;;;;;;;18.24;51.43;98213.38;5034723;28;20472;-60
2022/05/02 10:29:25;;;;;;;6.45;3.78;;;;;;;18.13;51.69;98220.06;5022393;28;20388;-60
2022/05/02 10:32:01;;;;;;;8.07;4.13;;;;;;;18.15;52.16;98209.34;5020877;28;20107;-59
2022/05/02 10:34:29;;;;;;;5.80;3.92;;;;;;;17.97;49.96;98212.59;5004721;28;20116;-58
2022/05/02 10:36:55;;;;;;;5.75;3.53;;;;;;;17.83;51.16;98212.56;5009765;28;20041;-63
2022/05/02 10:39:44;;;;;;;6.15;3.80;;;;;;;17.89;51.01;98204.88;5014201;28;20044;-58
2022/05/02 10:42:12;;;;;;;6.28;3.58;;;;;;;18.02;50.98;98210.16;5008683;28;20029;-58
2022/05/02 10:45:02;;;;;;;6.72;3.47;;;;;;;17.99;50.44;98206.09;5015867;28;20029;-58
2022/05/02 10:47:38;;;;;;;6.50;3.42;;;;;;;18.06;50.64;98208.72;5014727;28;20122;-60
2022/05/02 10:50:06;;;;;;;7.82;3.83;;;;;;;18.09;49.05;98197.81;5021732;28;20033;-58
2022/05/02 10:52:44;;;;;;;6.53;3.60;;;;;;;18.37;48.76;98197.56;5016312;28;20783;-59
2022/05/02 10:55:18;;;;;;;6.22;3.22;;;;;;;18.41;49.56;98192.72;5013833;28;20480;-59
2022/05/02 10:57:54;;;;;;;5.35;3.38;;;;;;;18.33;47.85;98177.94;5017492;28;20030;-59
2022/05/02 11:00:21;;;;;;;6.00;3.55;;;;;;;18.32;47.10;98193.94;5055871;28;20042;-58
2022/05/02 11:03:10;;;;;;;5.30;3.20;;;;;;;18.27;48.86;98194.53;5016715;28;20021;-57
2022/05/02 11:05:51;;;;;;;6.20;3.42;;;;;;;18.32;49.91;98186.84;5010719;28;20551;-59
2022/05/02 11:08:31;;;;;;;7.47;4.40;;;;;;;18.57;48.33;98188.84;5013807;28;20099;-59
2022/05/02 11:10:58;;;;;;;5.28;3.10;;;;;;;18.60;48.80;98185.78;5050629;28;20060;-59
2022/05/02 11:13:57;;;;;;;5.45;3.35;;;;;;;18.57;48.24;98189.63;5020165;28;20025;-57
2022/05/02 11:16:31;;;;;;;5.75;3.28;;;;;;;18.52;46.17;98175.47;5015093;28;20425;-59
2022/05/02 11:22:20;;;;;;;6.00;3.25;;;;;;;18.59;48.07;98182.34;5005844;28;20041;-59
2022/05/02 11:25:07;;;;;;;5.90;3.40;;;;;;;18.69;47.32;98176.66;5033310;28;20033;-58
2022/05/02 11:27:58;;;;;;;5.20;3.30;;;;;;;18.80;47.15;98180.44;5049817;28;20136;-58
2022/05/02 11:30:28;;;;;;;4.82;2.78;;;;;;;19.04;47.26;98183.44;5024601;28;20037;-58
2022/05/02 11:33:17;;;;;;;4.68;2.50;;;;;;;18.95;45.44;98185.50;5022256;28;20455;-58
2022/05/02 11:35:50;;;;;;;5.00;3.15;;;;;;;18.81;46.15;98180.28;5036167;28;20026;-59
2022/05/02 11:38:46;;;;;;;5.63;2.80;;;;;;;18.85;46.70;98180.66;5020913;28;20037;-57
2022/05/02 11:41:16;;;;;;;5.28;2.95;;;;;;;18.66;46.99;98148.09;5017280;28;20030;-59
2022/05/02 11:43:43;;;;;;;5.85;3.30;;;;;;;18.96;46.47;98176.56;5014746;28;20025;-57
2022/05/02 11:46:18;;;;;;;5.20;2.95;;;;;;;18.91;46.70;98179.03;5037702;28;20594;-59
2022/05/02 11:49:02;;;;;;;5.57;3.30;;;;;;;18.88;46.68;98172.34;5023718;28;20045;-60
2022/05/02 11:51:48;;;;;;;4.95;3.15;;;;;;;18.88;46.65;98169.72;5010584;28;20101;-60
2022/05/02 11:54:34;;;;;;;6.13;3.30;;;;;;;18.95;46.75;98169.72;5027683;28;20025;-59
2022/05/02 11:57:22;;;;;;;5.30;3.00;;;;;;;19.12;47.31;98168.19;5019496;28;20074;-59
2022/05/02 11:59:56;;;;;;;6.00;3.70;;;;;;;19.11;46.06;98163.94;5001360;28;20457;-59
2022/05/02 12:02:32;;;;;;;5.78;3.22;;;;;;;19.16;46.92;98168.56;5021805;28;20060;-61
2022/05/02 12:05:02;;;;;;;5.80;3.40;;;;;;;19.25;45.38;98169.16;5024455;28;21002;-59
2022/05/02 12:07:33;;;;;;;5.40;3.35;;;;;;;19.28;44.57;98169.53;5023668;28;20049;-60
2022/05/02 12:10:17;;;;;;;5.78;3.08;;;;;;;18.97;44.49;98128.94;5022712;28;20598;-60
2022/05/02 12:12:51;;;;;;;5.07;2.80;;;;;;;19.29;44.66;98165.84;5056332;28;20032;-60
2022/05/02 12:15:17;;;;;;;4.85;2.90;;;;;;;19.48;44.42;98150.16;5015729;28;20067;-57
2022/05/02 12:17:52;;;;;;;5.40;2.95;;;;;;;19.62;43.22;98156.94;5024947;28;20457;-58
2022/05/02 12:20:36;;;;;;;6.00;3.33;;;;;;;19.53;44.23;98159.03;5021288;28;20049;-59
2022/05/02 12:23:08;;;;;;;5.20;3.10;;;;;;;19.49;44.05;98154.41;5022598;28;20026;-59
2022/05/02 12:25:34;;;;;;;5.30;3.28;;;;;;;19.53;44.92;98145.84;5057231;28;20083;-59
2022/05/02 12:28:03;;;;;;;5.00;3.08;;;;;;;19.39;44.84;98118.75;5022068;28;20140;-59
2022/05/02 12:30:30;;;;;;;5.57;3.15;;;;;;;19.82;44.99;98153.38;5056609;28;20064;-59
2022/05/02 12:33:01;;;;;;;6.32;3.60;;;;;;;19.97;43.70;98149.38;5021228;28;20033;-61
2022/05/02 12:35:34;;;;;;;5.10;3.20;;;;;;;19.86;43.20;98147.47;5006248;28;20044;-59
2022/05/02 12:38:09;;;;;;;5.40;3.17;;;;;;;19.96;43.32;98146.97;5020272;28;20032;-60
2022/05/02 12:40:36;;;;;;;7.43;3.63;;;;;;;19.95;42.18;98154.06;5020218;28;20033;-59
2022/05/02 12:43:11;;;;;;;6.32;3.33;;;;;;;19.76;42.95;98104.94;5057563;28;20026;-59
2022/05/02 12:45:46;;;;;;;4.82;2.95;;;;;;;20.23;42.74;98139.59;5022666;28;20049;-58
2022/05/02 12:48:28;;;;;;;5.53;3.22;;;;;;;20.29;42.55;98109.69;5025782;28;20032;-59
2022/05/02 12:50:57;;;;;;;5.57;3.03;;;;;;;20.33;41.87;98100.31;5052003;28;20026;-58
2022/05/02 12:56:09;;;;;;;6.72;3.95;;;;;;;20.57;42.28;98124.19;5023589;28;20113;-60
2022/05/02 13:01:21;;;;;;;6.30;3.67;;;;;;;20.46;42.02;98111.75;5024243;28;20072;-61
2022/05/02 13:03:58;;;;;;;6.55;3.28;;;;;;;20.54;41.63;98114.09;5024299;28;20025;-61
2022/05/02 13:06:24;;;;;;;5.63;3.50;;;;;;;20.45;40.20;98073.97;5021361;28;20037;-58
2022/05/02 13:08:51;;;;;;;6.05;3.67;;;;;;;20.81;40.37;98108.50;5022332;28;20603;-58
2022/05/02 13:11:21;;;;;;;6.32;3.72;;;;;;;20.89;40.99;98110.84;5005719;28;20034;-58
2022/05/02 13:13:52;;;;;;;6.55;3.83;;;;;;;20.98;41.17;98108.72;5024359;28;20155;-59
2022/05/02 13:16:29;;;;;;;6.25;3.88;;;;;;;20.73;39.87;98099.84;5022036;28;20579;-60
2022/05/02 13:18:58;;;;;;;6.40;3.70;;;;;;;20.57;41.23;98103.06;5015802;28;20484;-57
2022/05/02 13:21:24;;;;;;;6.28;4.05;;;;;;;20.41;41.26;98096.56;5021529;28;20032;-58
2022/05/02 13:23:58;;;;;;;7.30;4.45;;;;;;;20.36;40.97;98096.41;5021960;28;20026;-57
2022/05/02 13:26:37;;;;;;;8.25;3.92;;;;;;;20.16;41.03;98092.16;5005907;28;20041;-58
2022/05/02 13:29:13;;;;;;;7.60;4.10;;;;;;;20.16;41.27;98096.63;5022640;28;20018;-59
2022/05/02 13:31:42;;;;;;;8.13;3.88;;;;;;;20.38;41.30;98094.38;5021320;28;20045;-58
2022/05/02 13:34:19;;;;;;;6.78;4.18;;;;;;;20.62;40.11;98074.19;5022891;28;20025;-58
2022/05/02 13:36:48;;;;;;;5.93;3.75;;;;;;;20.82;40.10;98078.44;5013937;28;20392;-59
2022/05/02 13:39:20;;;;;;;6.00;3.45;;;;;;;20.90;40.21;98080.75;5055424;28;20027;-59
2022/05/02 13:41:50;;;;;;;8.38;4.30;;;;;;;21.03;39.59;98061.28;5021188;28;20032;-59
2022/05/02 13:44:42;;;;;;;7.32;3.97;;;;;;;21.15;39.02;98075.31;5022633;28;20044;-59
2022/05/02 13:47:12;;;;;;;6.57;3.97;;;;;;;21.18;38.59;98061.66;5022723;28;20421;-58
2022/05/02 13:50:03;;;;;;;9.23;4.63;;;;;;;21.24;38.70;98073.16;5018858;28;20455;-60
2022/05/02 13:52:34;;;;;;;8.07;4.32;;;;;;;21.31;39.06;98074.66;5023515;28;20032;-58
2022/05/02 13:55:05;;;;;;;6.55;4.03;;;;;;;21.41;38.55;98073.28;5026731;28;20110;-57
2022/05/02 13:57:42;;;;;;;6.38;4.32;;;;;;;21.57;38.15;98070.00;5024516;28;20530;-57
2022/05/02 14:03:40;;;;;;;9.23;4.50;;;;;;;21.42;38.21;98040.53;5022199;28;20037;-60
2022/05/02 14:08:28;;;;;;;6.53;4.40;;;;;;;21.52;37.49;98061.16;5025824;28;20064;-59
2022/05/02 14:10:57;;;;;;;7.40;4.38;;;;;;;21.34;37.66;98032.94;5027455;28;20028;-58
2022/05/02 14:13:23;;;;;;;7.65;4.97;;;;;;;21.48;38.18;98058.16;5025663;28;20453;-60
2022/05/02 14:15:49;;;;;;;7.25;4.32;;;;;;;21.57;38.45;98061.28;5020139;28;20064;-57
2022/05/02 14:18:18;;;;;;;6.70;4.18;;;;;;;21.55;38.33;98058.06;5054305;28;20053;-57
2022/05/02 14:20:45;;;;;;;5.53;3.92;;;;;;;21.48;37.72;98060.81;5027412;28;20036;-58
2022/05/02 14:23:10;;;;;;;6.35;4.30;;;;;;;21.64;38.19;98043.44;5023645;28;20112;-61
2022/05/02 14:25:38;;;;;;;7.45;4.80;;;;;;;21.79;35.97;98057.00;5025714;28;20108;-58
2022/05/02 14:28:07;;;;;;;7.50;4.10;;;;;;;21.77;36.87;98058.28;5057382;28;20054;-59
2022/05/02 14:30:38;;;;;;;7.65;4.20;;;;;;;21.82;37.15;98050.47;5026133;28;20033;-57
2022/05/02 14:33:09;;;;;;;6.32;4.30;;;;;;;21.87;36.27;98056.69;5025921;28;20658;-57
2022/05/02 14:35:39;;;;;;;6.40;3.65;;;;;;;21.94;36.97;98051.28;5026432;28;20621;-57
2022/05/02 14:38:07;;;;;;;6.60;3.67;;;;;;;22.01;36.80;98053.78;5024837;28;20037;-58
2022/05/02 14:40:35;;;;;;;5.53;3.20;;;;;;;22.00;36.64;98028.38;5016275;28;20048;-58
2022/05/02 14:43:01;;;;;;;6.82;3.67;;;;;;;22.25;36.13;98055.38;5024737;28;20152;-57
2022/05/02 14:45:27;;;;;;;6.72;4.25;;;;;;;21.87;35.80;98009.03;5023408;28;20033;-59
2022/05/02 14:47:53;;;;;;;7.65;4.55;;;;;;;22.03;35.74;98046.41;5025206;28;20022;-60
2022/05/02 14:50:20;;;;;;;5.97;3.92;;;;;;;22.18;35.93;98053.88;5024574;28;20025;-57
2022/05/02 14:52:49;;;;;;;6.28;3.95;;;;;;;22.27;35.50;98061.25;5018782;28;20092;-58
2022/05/02 14:55:19;;;;;;;5.53;3.65;;;;;;;22.04;35.44;98010.97;5022567;28;20083;-58
2022/05/02 14:57:51;;;;;;;6.88;3.85;;;;;;;22.31;35.67;98058.94;5023357;28;20551;-58
2022/05/02 15:00:19;;;;;;;6.70;3.85;;;;;;;22.32;35.06;98051.81;5022672;28;20026;-58
2022/05/02 15:02:47;;;;;;;6.78;3.92;;;;;;;21.87;35.65;98018.84;5021312;28;20022;-58
2022/05/02 15:05:16;;;;;;;7.93;3.95;;;;;;;22.19;35.12;98050.19;5019645;28;20021;-57
2022/05/02 15:07:55;;;;;;;8.30;4.90;;;;;;;22.23;34.96;98059.25;5021975;28;20118;-57
2022/05/02 15:10:43;;;;;;;6.28;4.22;;;;;;;22.27;36.10;98053.31;5018012;28;20042;-57
2022/05/02 15:13:22;;;;;;;6.80;4.28;;;;;;;22.22;35.73;98060.31;5017803;28;20542;-58
2022/05/02 15:16:03;;;;;;;5.68;3.65;;;;;;;22.17;35.66;98053.06;5020333;28;20105;-57
2022/05/02 15:21:53;;;;;;;6.15;3.63;;;;;;;22.26;35.53;98056.19;5012774;28;20080;-59
2022/05/02 15:24:43;;;;;;;5.65;3.58;;;;;;;22.15;35.19;98052.50;5011362;28;20042;-59
2022/05/02 15:38:51;;;;;;;6.30;3.78;;;;;;;21.54;36.29;98062.56;5014388;28;20709;-59
2022/05/02 15:41:43;;;;;;;6.22;4.05;;;;;;;21.38;37.49;98071.13;5016396;28;20443;-57
2022/05/02 15:44:21;;;;;;;5.90;3.90;;;;;;;21.13;38.08;98043.81;5016395;28;20083;-59
2022/05/02 15:46:50;;;;;;;6.05;4.07;;;;;;;21.21;38.20;98063.03;5018180;28;20034;-58
2022/05/02 15:49:20;;;;;;;6.53;3.87;;;;;;;21.17;38.51;98060.03;5017490;28;20032;-58
2022/05/02 15:51:46;;;;;;;7.25;3.90;;;;;;;21.35;37.48;98059.16;5012994;28;20282;-60
2022/05/02 15:54:26;;;;;;;7.25;4.28;;;;;;;21.06;37.71;98023.81;5019141;28;20037;-58
2022/05/02 15:56:57;;;;;;;6.68;4.00;;;;;;;21.18;37.58;98037.06;5019654;28;20021;-58
2022/05/02 15:59:42;;;;;;;6.90;4.82;;;;;;;21.01;37.99;98053.56;5016948;28;20042;-60
2022/05/02 16:02:16;;;;;;;6.45;4.28;;;;;;;20.65;37.78;98020.94;5013608;28;20032;-59
2022/05/02 16:04:58;;;;;;;6.85;3.92;;;;;;;20.82;39.04;98060.72;5032757;28;20213;-59
2022/05/02 16:10:32;;;;;;;;;;;;;;;20.63;38.86;98049.41;5012668;28;20578;-58
2022/05/02 16:12:58;;;;;;;6.85;4.40;;;;;;;20.68;38.69;98054.84;5051175;28;20008;-59
2022/05/02 16:15:26;;;;;;;7.35;4.90;;;;;;;20.88;37.46;98059.84;5027642;28;20094;-59
2022/05/02 16:17:53;;;;;;;7.75;4.70;;;;;;;20.89;38.27;98064.09;5030650;28;20074;-57
2022/05/02 16:20:19;;;;;;;6.90;4.72;;;;;;;21.00;38.32;98061.72;5014333;28;20050;-59
2022/05/02 16:22:45;;;;;;;7.70;4.57;;;;;;;21.03;37.96;98056.78;4984149;28;20571;-59
2022/05/02 16:25:17;;;;;;;7.07;4.30;;;;;;;20.88;38.39;98048.44;5006884;28;20053;-59
2022/05/02 16:27:44;;;;;;;6.95;4.40;;;;;;;20.84;38.53;98049.94;5013048;28;20029;-59
2022/05/02 16:30:11;;;;;;;7.05;4.50;;;;;;;20.69;38.49;98047.72;5016751;28;20519;-58
2022/05/02 16:32:38;;;;;;;6.90;4.13;;;;;;;20.55;38.72;98044.38;5009903;28;20029;-58
2022/05/02 16:35:24;;;;;;;6.63;3.95;;;;;;;20.43;38.92;98041.72;5013130;28;20036;-59
2022/05/02 16:37:55;;;;;;;7.25;4.38;;;;;;;20.42;38.80;98042.72;5009131;28;20056;-57
2022/05/02 16:40:29;;;;;;;6.22;4.38;;;;;;;20.34;39.24;98045.69;5027568;28;20060;-58
2022/05/02 16:43:01;;;;;;;7.25;4.63;;;;;;;20.26;39.44;98046.78;5006268;28;20075;-59
2022/05/02 16:45:29;;;;;;;6.07;4.00;;;;;;;20.22;39.92;98040.31;5011450;28;20076;-59
2022/05/02 16:47:55;;;;;;;7.82;4.80;;;;;;;20.08;40.48;98050.25;5031920;28;20034;-59
2022/05/02 16:50:35;;;;;;;6.82;4.75;;;;;;;19.65;41.64;98019.38;5019003;28;20037;-59
2022/05/02 16:53:01;;;;;;;6.72;4.40;;;;;;;19.81;42.08;98054.97;5053501;28;20029;-60
2022/05/02 16:55:30;;;;;;;7.25;4.95;;;;;;;19.65;42.59;98058.94;5014499;28;20044;-58
2022/05/02 16:58:22;;;;;;;8.30;4.80;;;;;;;19.71;42.10;98068.63;5014329;28;20033;-60
